Capitol Logistics 233


KSMF
Sacramento International Airport
Sacramento, California, US
KPHX
Phoenix Sky Harbor International Airport
Phoenix, Arizona, US

Route Details

Aircraft Information
Primary: Boeing 767-300BDSF
Backup: Not Available
Route Data
Distance: 562nm
Sched. Duration: 1h 50m
Avg. Duration: 1h 46m (-4m)
Times Flown: 3
Recm'd Route: SCTWN2 SCTWN DOSCO OAL LIDAT BTY J92 BLD PRFUM WOTRO BRUSR1
Planned Altitude: 37,000ft
Origin Wx: KSMF 032153Z 21007KT 10SM CLR 30/11 A2996 RMK AO2 SLP145 T03000106
Dest. Wx: KPHX 032151Z 00000KT 10SM SCT090 39/14 A2986 RMK AO2 SLP090 T03890144 $
Notes:

Financial History
Total Freight: 234,520lbs
Average Load: 78,173lbs/flt
Fuel Used: 56,917lbs
Avg. Fuel Used: 18,972lbs/flt
Fuel Expense: $62,040
Avg. Fuel Expense: $20,680
Avg. Fuel Cost: $1.09/lbs
Total Gross Income: $311,179
Pilot Pay: $397
Total Expenses: $33,763
Total Revenue: $214,646
Average Revenue: $103,726.22